createdAt,value
2018-06-08T00:01:33.271Z,60.90
2018-06-08T00:04:02.463Z,54.53
2018-06-08T00:06:31.508Z,57.60
2018-06-08T00:09:00.571Z,77.80
2018-06-08T00:11:29.595Z,67.83
2018-06-08T00:13:58.671Z,65.70
2018-06-08T00:16:27.684Z,57.40
2018-06-08T00:18:56.769Z,57.77
2018-06-08T00:21:25.851Z,57.97
2018-06-08T00:23:54.899Z,62.10
2018-06-08T00:26:23.975Z,69.90
2018-06-08T00:28:53.079Z,77.83
2018-06-08T00:31:22.130Z,56.00
2018-06-08T00:33:51.135Z,64.20
2018-06-08T00:36:20.234Z,54.50
2018-06-08T00:38:49.288Z,64.70
2018-06-08T00:41:18.355Z,67.10
2018-06-08T00:43:47.377Z,79.17
2018-06-08T00:46:16.467Z,71.97
2018-06-08T00:48:45.556Z,69.80
2018-06-08T00:51:14.566Z,58.80
2018-06-08T00:53:43.600Z,88.57
2018-06-08T00:56:23.764Z,59.20
2018-06-08T00:58:52.851Z,58.20
2018-06-08T01:01:22.401Z,78.13
2018-06-08T01:03:51.437Z,65.87
2018-06-08T01:06:20.472Z,71.40
2018-06-08T01:08:49.518Z,69.63
2018-06-08T01:11:19.030Z,67.33
2018-06-08T01:13:48.083Z,83.50
2018-06-08T01:16:17.147Z,81.77
2018-06-08T01:18:46.157Z,72.37
2018-06-08T01:21:15.220Z,65.83
2018-06-08T01:23:44.239Z,67.07
2018-06-08T01:26:13.259Z,83.00
2018-06-08T01:28:42.265Z,76.80
2018-06-08T01:31:11.320Z,66.63
2018-06-08T01:33:40.880Z,69.53
2018-06-08T01:36:10.047Z,57.70
2018-06-08T01:38:39.140Z,62.93
2018-06-08T01:41:08.184Z,77.80
2018-06-08T01:43:37.229Z,80.80
2018-06-08T01:46:06.250Z,65.60
2018-06-08T01:48:34.877Z,56.73
2018-06-08T01:51:03.903Z,73.03
2018-06-08T01:53:32.959Z,83.57
2018-06-08T01:56:02.054Z,81.33
2018-06-08T01:58:31.095Z,81.97
2018-06-08T02:01:00.197Z,69.93
2018-06-08T02:03:29.215Z,95.03
2018-06-08T02:05:58.258Z,79.57
2018-06-08T02:08:27.309Z,92.33
2018-06-08T02:10:56.360Z,81.33
2018-06-08T02:13:25.393Z,73.87
2018-06-08T02:15:54.515Z,64.20
2018-06-08T02:18:23.562Z,60.83
2018-06-08T02:20:52.563Z,66.03
2018-06-08T02:23:21.597Z,66.90
2018-06-08T02:25:50.657Z,64.47
2018-06-08T02:28:19.709Z,67.90
2018-06-08T02:30:48.761Z,75.17
2018-06-08T02:33:17.792Z,92.73
2018-06-08T02:35:47.050Z,83.03
2018-06-08T02:38:16.144Z,83.70
2018-06-08T02:40:45.147Z,84.17
2018-06-08T02:43:14.181Z,88.97
2018-06-08T02:45:43.242Z,89.00
2018-06-08T02:48:12.286Z,86.97
2018-06-08T02:50:41.367Z,79.17
2018-06-08T02:53:10.384Z,92.90
2018-06-08T02:55:39.440Z,78.17
2018-06-08T02:58:08.510Z,71.40
2018-06-08T03:00:37.552Z,80.27
2018-06-08T03:03:06.575Z,73.70
2018-06-08T03:05:35.643Z,87.93
2018-06-08T03:08:05.143Z,69.00
2018-06-08T03:10:34.267Z,98.27
2018-06-08T03:13:03.525Z,73.20
2018-06-08T03:15:32.568Z,85.70
2018-06-08T03:18:01.617Z,69.03
2018-06-08T03:20:30.610Z,94.60
2018-06-08T03:22:59.169Z,85.60
2018-06-08T03:25:28.204Z,90.43
2018-06-08T03:27:57.260Z,83.83
2018-06-08T03:30:26.291Z,86.17
2018-06-08T03:32:55.319Z,76.20
2018-06-08T03:35:24.312Z,128.63
2018-06-08T03:37:53.393Z,82.70
2018-06-08T03:40:22.380Z,98.30
2018-06-08T03:42:51.383Z,88.40
2018-06-08T03:45:20.431Z,90.50
2018-06-08T03:47:49.689Z,101.30
2018-06-08T03:50:18.757Z,93.53
2018-06-08T03:52:47.751Z,97.97
2018-06-08T03:55:16.799Z,77.00
2018-06-08T03:57:45.832Z,91.83
2018-06-08T04:00:14.913Z,114.40
2018-06-08T04:02:43.962Z,82.70
2018-06-08T04:05:13.031Z,92.83
2018-06-08T04:07:42.062Z,82.83
2018-06-08T04:10:11.094Z,90.43
2018-06-08T04:12:40.240Z,101.23
2018-06-08T04:15:09.315Z,92.73
2018-06-08T04:17:40.477Z,91.27
2018-06-08T04:20:09.529Z,75.27
2018-06-08T04:22:38.583Z,76.80
2018-06-08T04:25:07.616Z,91.93
2018-06-08T04:27:36.635Z,111.43
2018-06-08T04:30:05.772Z,106.07
2018-06-08T04:32:34.817Z,115.90
2018-06-08T04:35:03.999Z,171.17
2018-06-08T04:37:33.078Z,124.93
2018-06-08T04:40:02.123Z,124.83
2018-06-08T04:42:31.140Z,120.70
2018-06-08T04:45:00.215Z,140.20
2018-06-08T04:47:29.223Z,189.27
2018-06-08T04:49:58.267Z,148.57
2018-06-08T04:52:27.280Z,177.00
2018-06-08T04:54:56.297Z,114.90
2018-06-08T04:57:25.379Z,134.77
2018-06-08T04:59:54.408Z,127.50
2018-06-08T05:02:23.465Z,111.50
2018-06-08T05:04:52.531Z,148.07
2018-06-08T05:07:21.576Z,108.10
2018-06-08T05:09:50.607Z,113.80
2018-06-08T05:12:19.639Z,130.77
2018-06-08T05:14:48.753Z,141.27
2018-06-08T05:17:17.779Z,116.90
2018-06-08T05:19:46.815Z,122.00
2018-06-08T05:22:15.864Z,121.87
2018-06-08T05:24:44.891Z,122.53
2018-06-08T05:27:13.945Z,103.77
2018-06-08T05:29:43.046Z,89.67
2018-06-08T05:32:12.043Z,107.17
2018-06-08T05:34:41.089Z,95.73
2018-06-08T05:37:10.123Z,81.43
2018-06-08T05:39:39.206Z,112.27
2018-06-08T05:42:08.272Z,104.43
2018-06-08T05:44:37.368Z,85.63
2018-06-08T05:47:06.491Z,83.17
2018-06-08T05:49:35.501Z,84.53
2018-06-08T05:52:04.593Z,90.57
2018-06-08T05:54:34.066Z,77.43
2018-06-08T05:57:03.123Z,78.33
2018-06-08T05:59:32.154Z,86.10
2018-06-08T06:02:01.263Z,96.57
2018-06-08T06:04:30.976Z,78.93
2018-06-08T06:06:59.982Z,81.83
2018-06-08T06:09:29.693Z,76.40
2018-06-08T06:11:58.736Z,98.37
2018-06-08T06:14:27.739Z,111.20
2018-06-08T06:16:56.809Z,92.33
2018-06-08T06:19:25.842Z,81.53
2018-06-08T06:21:54.931Z,76.70
2018-06-08T06:24:23.935Z,86.10
2018-06-08T06:26:52.983Z,91.07
2018-06-08T06:29:22.016Z,100.63
2018-06-08T06:31:51.011Z,79.37
2018-06-08T06:34:20.736Z,77.53
2018-06-08T06:36:49.285Z,81.97
2018-06-08T06:39:18.331Z,86.37
2018-06-08T06:41:47.372Z,81.43
2018-06-08T06:44:17.169Z,85.43
2018-06-08T06:46:46.432Z,78.90
2018-06-08T06:49:15.766Z,84.03
2018-06-08T06:51:44.807Z,75.87
2018-06-08T06:54:13.838Z,76.57
2018-06-08T06:56:42.969Z,74.30
2018-06-08T06:59:12.090Z,75.70
2018-06-08T07:01:41.140Z,70.00
2018-06-08T07:04:10.163Z,65.30
2018-06-08T07:06:39.283Z,59.50
2018-06-08T07:09:09.544Z,50.20
2018-06-08T07:11:38.603Z,53.53
2018-06-08T07:14:07.690Z,48.07
2018-06-08T07:16:37.534Z,40.87
2018-06-08T07:19:06.601Z,30.93
2018-06-08T07:21:35.899Z,34.17
2018-06-08T07:24:04.952Z,33.27
2018-06-08T07:26:34.704Z,30.10
2018-06-08T07:29:03.765Z,35.27
2018-06-08T07:31:32.915Z,38.33
2018-06-08T07:34:01.950Z,35.43
2018-06-08T07:36:31.439Z,36.00
2018-06-08T07:39:00.470Z,33.53
2018-06-08T07:41:29.539Z,38.80
2018-06-08T07:43:58.546Z,33.50
2018-06-08T07:46:27.587Z,39.93
2018-06-08T07:48:56.603Z,35.43
2018-06-08T07:51:25.703Z,33.60
2018-06-08T07:53:54.738Z,40.13
2018-06-08T07:56:23.840Z,36.57
2018-06-08T07:58:52.886Z,36.83
2018-06-08T08:01:21.907Z,37.40
2018-06-08T08:03:50.928Z,29.20
2018-06-08T08:06:20.008Z,30.03
2018-06-08T08:08:49.007Z,33.93
2018-06-08T08:11:18.124Z,34.50
2018-06-08T08:13:47.135Z,33.03
2018-06-08T08:16:16.190Z,31.30
2018-06-08T08:18:45.222Z,29.70
2018-06-08T08:21:14.297Z,28.10
2018-06-08T08:23:43.379Z,34.30
2018-06-08T08:26:12.520Z,27.53
2018-06-08T08:28:41.567Z,30.20
2018-06-08T08:31:10.643Z,28.70
2018-06-08T08:33:39.687Z,26.60
2018-06-08T08:36:08.706Z,28.03
2018-06-08T08:38:37.908Z,25.00
2018-06-08T08:41:07.048Z,24.63
2018-06-08T09:29:02.050Z,20.50
2018-06-08T09:31:31.091Z,22.70
2018-06-08T09:34:00.125Z,20.90
2018-06-08T09:36:29.234Z,24.90
2018-06-08T09:38:58.431Z,23.17
2018-06-08T09:41:27.588Z,27.17
2018-06-08T09:43:56.683Z,24.37
2018-06-08T09:46:25.783Z,21.83
2018-06-08T09:48:54.783Z,26.57
2018-06-08T09:51:23.831Z,25.80
2018-06-08T09:53:52.911Z,20.00
2018-06-08T09:56:21.924Z,20.50
2018-06-08T09:58:51.011Z,26.17
2018-06-08T10:01:20.015Z,24.13
2018-06-08T10:03:49.076Z,20.63
2018-06-08T10:06:18.176Z,21.50
2018-06-08T10:08:47.292Z,25.87
2018-06-08T10:11:16.374Z,22.30
2018-06-08T10:13:45.562Z,21.27
2018-06-08T10:16:15.077Z,23.30
2018-06-08T10:18:44.124Z,23.60
2018-06-08T10:21:13.186Z,24.73
2018-06-08T10:23:42.186Z,23.47
2018-06-08T10:26:11.244Z,23.00
2018-06-08T10:28:40.270Z,23.23
2018-06-08T10:31:09.374Z,20.80
2018-06-08T10:33:38.400Z,22.63
2018-06-08T10:36:08.253Z,17.70
2018-06-08T10:38:37.349Z,21.80
2018-06-08T10:41:06.394Z,22.13
2018-06-08T10:43:35.394Z,20.27
2018-06-08T10:46:04.494Z,18.93
2018-06-08T10:48:33.527Z,21.43
2018-06-08T10:51:02.596Z,20.57
2018-06-08T10:53:31.624Z,16.90
2018-06-08T10:56:00.726Z,19.30
2018-06-08T10:58:29.783Z,18.57
2018-06-08T11:00:58.798Z,21.90
2018-06-08T11:03:28.502Z,18.17
2018-06-08T11:05:57.496Z,18.53
2018-06-08T11:08:26.539Z,22.63
2018-06-08T11:10:55.606Z,18.30
2018-06-08T11:13:24.627Z,20.20
2018-06-08T11:15:53.695Z,17.27
2018-06-08T11:18:22.792Z,18.57
2018-06-08T11:20:51.863Z,23.53
2018-06-08T11:23:20.444Z,19.97
2018-06-08T11:25:49.584Z,18.23
2018-06-08T11:28:18.847Z,18.07
2018-06-08T11:30:47.951Z,13.17
2018-06-08T11:33:17.052Z,15.27
2018-06-08T11:35:46.127Z,14.97
2018-06-08T11:38:15.213Z,17.67
2018-06-08T11:40:44.307Z,17.50
2018-06-08T11:43:14.234Z,17.67
2018-06-08T11:45:43.834Z,16.50
2018-06-08T11:48:12.922Z,13.80
2018-06-08T11:50:41.982Z,13.53
2018-06-08T11:53:11.075Z,17.53
2018-06-08T11:55:40.099Z,11.57
2018-06-08T11:58:09.215Z,13.23
2018-06-08T12:00:38.338Z,11.87
2018-06-08T12:03:07.411Z,13.70
2018-06-08T12:05:36.483Z,15.63
2018-06-08T12:08:05.982Z,11.37
2018-06-08T12:10:35.131Z,13.43
2018-06-08T12:13:04.281Z,14.10
2018-06-08T12:15:33.364Z,11.43
2018-06-08T12:18:01.966Z,15.40
2018-06-08T12:20:31.054Z,13.13
2018-06-08T12:23:00.148Z,13.60
2018-06-08T12:25:29.200Z,10.50
2018-06-08T12:27:58.262Z,13.50
2018-06-08T12:30:27.478Z,12.47
2018-06-08T12:32:56.585Z,11.33
2018-06-08T12:35:25.584Z,11.03
2018-06-08T12:37:54.648Z,9.23
2018-06-08T12:40:23.735Z,12.03
2018-06-08T12:42:52.799Z,9.80
2018-06-08T12:45:24.745Z,9.77
2018-06-08T12:47:54.365Z,10.10
2018-06-08T12:50:23.564Z,10.07
2018-06-08T12:52:52.770Z,9.53
2018-06-08T12:55:21.854Z,7.97
2018-06-08T12:57:50.872Z,9.63
2018-06-08T13:00:19.931Z,9.50
2018-06-08T13:02:48.959Z,9.33
2018-06-08T13:05:18.091Z,9.97
2018-06-08T13:07:47.146Z,8.40
2018-06-08T13:10:16.264Z,7.60
2018-06-08T13:12:45.279Z,7.43
2018-06-08T13:15:14.324Z,7.50
2018-06-08T13:17:43.368Z,6.63
2018-06-08T13:20:12.437Z,7.83
2018-06-08T13:22:41.524Z,9.80
2018-06-08T13:25:11.121Z,8.60
2018-06-08T13:27:40.177Z,7.60
2018-06-08T13:30:09.446Z,8.10
2018-06-08T13:32:38.883Z,10.30
2018-06-08T13:35:07.959Z,9.63
2018-06-08T13:37:37.172Z,7.97
2018-06-08T13:40:06.353Z,9.50
2018-06-08T13:42:35.409Z,7.97
2018-06-08T13:45:04.639Z,8.40
2018-06-08T13:47:33.684Z,9.50
2018-06-08T13:50:02.723Z,8.57
2018-06-08T13:52:31.761Z,8.77
2018-06-08T13:55:00.799Z,10.53
2018-06-08T13:57:29.898Z,9.97
2018-06-08T13:59:58.986Z,8.77
2018-06-08T14:02:28.086Z,8.80
2018-06-08T14:04:57.203Z,7.43
2018-06-08T14:07:26.318Z,9.77
2018-06-08T14:09:55.397Z,7.73
2018-06-08T14:12:24.380Z,8.70
2018-06-08T14:14:53.420Z,7.93
2018-06-08T14:17:22.591Z,10.03
2018-06-08T14:19:51.633Z,9.03
2018-06-08T14:22:20.194Z,7.07
2018-06-08T14:24:49.250Z,7.10
2018-06-08T14:27:18.267Z,7.20
2018-06-08T14:29:47.306Z,7.37
2018-06-08T14:32:17.388Z,7.70
2018-06-08T14:34:46.466Z,7.07
2018-06-08T14:37:15.505Z,7.17
2018-06-08T14:39:44.542Z,7.00
2018-06-08T14:42:13.622Z,7.30
2018-06-08T14:44:42.660Z,6.97
2018-06-08T14:47:11.812Z,7.20
2018-06-08T14:49:40.827Z,7.87
2018-06-08T14:52:09.891Z,6.60
2018-06-08T14:54:38.919Z,6.70
2018-06-08T14:57:08.024Z,7.40
2018-06-08T14:59:37.110Z,6.70
2018-06-08T15:02:06.218Z,7.03
2018-06-08T15:04:35.423Z,6.73
2018-06-08T15:07:04.531Z,6.40
2018-06-08T15:09:33.661Z,10.10
2018-06-08T15:12:02.703Z,6.50
2018-06-08T15:14:31.740Z,7.07
2018-06-08T15:17:00.788Z,6.73
2018-06-08T15:19:29.825Z,7.50
2018-06-08T15:21:58.851Z,6.97
2018-06-08T15:24:27.935Z,6.87
2018-06-08T15:26:56.964Z,7.07
2018-06-08T15:29:25.992Z,9.60
2018-06-08T15:31:55.102Z,7.47
2018-06-08T15:34:24.232Z,10.90
2018-06-08T15:36:53.348Z,7.70
2018-06-08T15:39:22.379Z,7.73
2018-06-08T15:41:51.457Z,11.70
2018-06-08T15:44:20.518Z,11.17
2018-06-08T15:46:49.593Z,8.53
2018-06-08T15:49:18.592Z,9.97
2018-06-08T15:51:47.647Z,10.23
2018-06-08T15:54:16.758Z,14.17
2018-06-08T15:56:45.728Z,12.03
2018-06-08T15:59:14.794Z,15.47
2018-06-08T16:01:43.832Z,17.27
2018-06-08T16:04:13.064Z,13.90
2018-06-08T16:06:42.244Z,13.60
2018-06-08T16:09:11.350Z,12.20
2018-06-08T16:11:40.514Z,13.03
2018-06-08T16:14:09.713Z,15.50
2018-06-08T16:16:38.823Z,22.23
2018-06-08T16:19:07.872Z,16.83
2018-06-08T16:21:36.979Z,19.03
2018-06-08T16:24:06.107Z,21.37
2018-06-08T16:26:35.333Z,20.50
2018-06-08T16:29:04.501Z,19.53
2018-06-08T16:31:33.625Z,18.37
2018-06-08T16:34:02.751Z,11.03
2018-06-08T16:36:31.867Z,14.67
2018-06-08T16:39:00.939Z,9.53
2018-06-08T16:41:29.990Z,8.20
2018-06-08T16:43:59.015Z,8.10
2018-06-08T16:46:28.086Z,8.13
2018-06-08T16:48:57.265Z,12.60
2018-06-08T16:51:26.351Z,9.80
2018-06-08T16:53:55.386Z,8.20
2018-06-08T16:56:24.444Z,8.43
2018-06-08T16:58:53.468Z,9.33
2018-06-08T17:01:22.519Z,10.27
2018-06-08T17:03:51.039Z,7.27
2018-06-08T17:06:20.081Z,8.80
2018-06-08T17:08:49.062Z,8.33
2018-06-08T17:11:18.115Z,13.70
2018-06-08T17:13:47.148Z,11.20
2018-06-08T17:16:16.256Z,15.67
2018-06-08T17:18:45.357Z,10.40
2018-06-08T17:21:14.421Z,11.30
2018-06-08T17:23:43.502Z,17.40
2018-06-08T17:26:12.513Z,6.80
2018-06-08T17:28:41.543Z,9.03
2018-06-08T17:31:10.595Z,9.50
2018-06-08T17:33:39.693Z,10.43
2018-06-08T17:36:08.775Z,7.77
2018-06-08T17:38:37.761Z,7.13
2018-06-08T17:41:06.893Z,10.40
2018-06-08T17:43:36.681Z,8.07
2018-06-08T17:46:05.885Z,8.33
2018-06-08T17:48:34.979Z,8.30
2018-06-08T17:51:04.117Z,15.50
2018-06-08T17:53:33.583Z,11.33
2018-06-08T17:56:02.859Z,12.90
2018-06-08T17:58:31.982Z,10.60
2018-06-08T18:01:00.986Z,10.17
2018-06-08T18:03:30.073Z,11.57
2018-06-08T18:05:59.127Z,9.90
2018-06-08T18:08:28.156Z,10.30
2018-06-08T18:10:57.219Z,12.00
2018-06-08T18:13:26.247Z,10.93
2018-06-08T18:15:56.139Z,9.03
2018-06-08T18:18:25.209Z,8.87
2018-06-08T18:20:54.240Z,8.27
2018-06-08T18:23:23.292Z,8.03
2018-06-08T18:25:52.314Z,12.53
2018-06-08T18:28:21.351Z,9.77
2018-06-08T18:30:50.419Z,9.40
2018-06-08T18:33:19.500Z,11.17
2018-06-08T18:35:48.516Z,11.00
2018-06-08T18:38:17.909Z,9.27
2018-06-08T18:40:46.987Z,9.30
2018-06-08T18:43:16.309Z,9.63
2018-06-08T18:45:45.397Z,12.40
2018-06-08T18:48:14.435Z,11.07
2018-06-08T18:50:43.612Z,8.47
2018-06-08T18:53:12.611Z,8.63
2018-06-08T18:55:41.649Z,8.57
2018-06-08T18:58:10.683Z,8.40
2018-06-08T19:00:39.742Z,9.73
2018-06-08T19:03:08.818Z,8.53
2018-06-08T19:05:37.813Z,8.30
2018-06-08T19:08:06.840Z,8.33
2018-06-08T19:10:35.847Z,4.73
2018-06-08T19:13:04.955Z,6.80
2018-06-08T19:15:34.820Z,5.43
2018-06-08T19:18:03.904Z,7.50
2018-06-08T19:20:32.907Z,5.70
2018-06-08T19:23:01.940Z,6.30
2018-06-08T19:25:31.000Z,4.77
2018-06-08T19:28:00.369Z,7.13
2018-06-08T19:30:28.923Z,5.60
2018-06-08T19:32:58.486Z,6.87
2018-06-08T19:35:27.543Z,5.20
2018-06-08T19:37:57.275Z,5.30
2018-06-08T19:40:27.191Z,5.90
2018-06-08T19:42:56.498Z,5.20
2018-06-08T19:45:25.534Z,5.23
2018-06-08T19:47:54.516Z,4.47
2018-06-08T19:50:24.462Z,5.30
2018-06-08T19:52:53.523Z,9.27
2018-06-08T19:55:22.584Z,5.90
2018-06-08T19:57:51.649Z,8.10
2018-06-08T20:00:20.690Z,5.90
2018-06-08T20:02:49.790Z,5.03
2018-06-08T20:05:18.814Z,5.80
2018-06-08T20:07:47.879Z,6.80
2018-06-08T20:10:16.905Z,6.57
2018-06-08T20:12:46.010Z,6.80
2018-06-08T20:15:15.040Z,7.50
2018-06-08T20:17:44.099Z,7.57
2018-06-08T20:20:13.111Z,8.00
2018-06-08T20:22:42.147Z,6.40
2018-06-08T20:25:11.163Z,8.70
2018-06-08T20:27:40.230Z,8.03
2018-06-08T20:30:09.259Z,7.17
2018-06-08T20:32:38.227Z,7.60
2018-06-08T20:35:07.285Z,7.77
2018-06-08T20:37:36.294Z,7.13
2018-06-08T20:40:05.458Z,8.30
2018-06-08T20:42:34.464Z,11.53
2018-06-08T20:45:03.528Z,8.17
2018-06-08T20:47:32.531Z,8.63
2018-06-08T20:50:01.949Z,12.30
2018-06-08T20:52:31.019Z,6.87
2018-06-08T20:55:00.047Z,8.43
2018-06-08T20:57:29.832Z,6.87
2018-06-08T20:59:58.852Z,9.93
2018-06-08T21:02:27.907Z,10.40
2018-06-08T21:04:56.908Z,6.93
2018-06-08T21:07:25.960Z,10.57
2018-06-08T21:09:54.953Z,9.13
2018-06-08T21:12:24.039Z,13.13
2018-06-08T21:14:53.112Z,7.77
2018-06-08T21:17:22.141Z,10.60
2018-06-08T21:19:51.200Z,7.87
2018-06-08T21:22:20.215Z,8.63
2018-06-08T21:24:49.248Z,12.03
2018-06-08T21:27:18.271Z,6.87
2018-06-08T21:29:48.268Z,10.00
2018-06-08T21:32:17.339Z,9.80
2018-06-08T21:34:46.404Z,11.50
2018-06-08T21:37:15.925Z,6.03
2018-06-08T21:39:44.920Z,10.00
2018-06-08T21:42:13.947Z,8.83
2018-06-08T21:44:43.004Z,10.27
2018-06-08T21:47:12.025Z,9.13
2018-06-08T21:49:41.066Z,7.80
2018-06-08T21:52:10.277Z,9.57
2018-06-08T21:54:39.326Z,6.83
2018-06-08T21:57:08.318Z,8.17
2018-06-08T21:59:37.374Z,8.33
2018-06-08T22:02:06.439Z,8.10
2018-06-08T22:04:35.511Z,8.40
2018-06-08T22:07:04.520Z,9.70
2018-06-08T22:09:33.555Z,7.90
2018-06-08T22:12:02.591Z,8.37
2018-06-08T22:14:31.666Z,8.33
2018-06-08T22:17:00.727Z,7.43
2018-06-08T22:19:29.804Z,9.70
2018-06-08T22:21:58.854Z,10.20
2018-06-08T22:24:27.898Z,8.20
2018-06-08T22:26:56.882Z,11.60
2018-06-08T22:29:25.946Z,12.17
2018-06-08T22:31:54.497Z,8.27
2018-06-08T22:34:23.564Z,8.07
2018-06-08T22:36:52.590Z,8.83
2018-06-08T22:39:21.667Z,12.43
2018-06-08T22:41:50.711Z,7.97
2018-06-08T22:44:19.742Z,7.47
2018-06-08T22:46:48.820Z,8.27
2018-06-08T22:49:17.844Z,9.93
2018-06-08T22:51:46.922Z,8.57
2018-06-08T22:54:15.991Z,7.20
2018-06-08T22:56:45.016Z,6.20
2018-06-08T22:59:14.079Z,7.97
2018-06-08T23:01:43.104Z,5.67
2018-06-08T23:04:12.327Z,5.13
2018-06-08T23:06:42.252Z,6.00
2018-06-08T23:09:11.297Z,8.10
2018-06-08T23:11:40.302Z,5.50
2018-06-08T23:14:09.391Z,5.30
2018-06-08T23:16:38.412Z,5.40
2018-06-08T23:19:07.424Z,6.93
2018-06-08T23:21:36.438Z,4.63
2018-06-08T23:24:05.474Z,6.30
2018-06-08T23:26:34.679Z,5.67
2018-06-08T23:29:03.682Z,6.17
2018-06-08T23:31:32.283Z,7.33
2018-06-08T23:34:01.343Z,6.20
2018-06-08T23:36:30.334Z,5.57
2018-06-08T23:38:59.378Z,6.00
2018-06-08T23:41:28.398Z,5.23
2018-06-08T23:43:57.407Z,7.43
2018-06-08T23:46:26.403Z,5.73
2018-06-08T23:48:55.582Z,9.33
2018-06-08T23:51:24.586Z,5.50
2018-06-08T23:53:53.680Z,9.23
2018-06-08T23:56:23.303Z,10.53
2018-06-08T23:58:51.869Z,8.47
